Time,TemperatureF,DewpointF,PressureIn,WindDirection,WindDirectionDegrees,WindSpeedMPH,WindSpeedGustMPH,Humidity,HourlyPrecipIn,Conditions,Clouds,dailyrainin,SoftwareType,DateUTC
2013-07-30 00:03:00,70.0,67.0,29.96,SE,128,1.0,2.0,90,0.00,,,0.52,,2013-07-30 05:03:00,
2013-07-30 00:12:00,70.0,67.0,29.95,SE,129,0.0,1.0,90,0.00,,,0.52,,2013-07-30 05:12:00,
2013-07-30 00:23:00,70.0,67.0,29.95,SE,129,0.0,1.0,90,0.00,,,0.52,,2013-07-30 05:23:00,
2013-07-30 00:33:00,70.0,67.0,29.95,SE,129,0.0,1.0,90,0.00,,,0.52,,2013-07-30 05:33:00,
2013-07-30 00:45:00,70.0,67.0,29.95,SE,129,0.0,0.0,90,0.00,,,0.52,,2013-07-30 05:45:00,
2013-07-30 00:52:00,70.0,67.0,29.95,SE,129,0.0,0.0,90,0.00,,,0.52,,2013-07-30 05:52:00,
2013-07-30 01:03:00,70.0,67.0,29.95,SE,129,0.0,0.0,90,0.00,,,0.52,,2013-07-30 06:03:00,
2013-07-30 01:13:00,71.0,68.0,29.95,North,360,0.0,0.0,90,0.00,,,0.52,,2013-07-30 06:13:00,
2013-07-30 01:23:00,71.0,68.0,29.95,North,360,0.0,0.0,90,0.00,,,0.52,,2013-07-30 06:23:00,
2013-07-30 01:33:00,71.0,68.0,29.95,North,360,0.0,0.0,90,0.00,,,0.52,,2013-07-30 06:33:00,
2013-07-30 01:43:00,70.0,67.0,29.96,North,360,0.0,0.0,90,0.00,,,0.52,,2013-07-30 06:43:00,
2013-07-30 01:53:00,70.0,67.0,29.96,North,360,0.0,0.0,90,0.00,,,0.52,,2013-07-30 06:53:00,
2013-07-30 02:03:00,70.0,67.0,29.96,North,360,0.0,0.0,90,0.00,,,0.52,,2013-07-30 07:03:00,
2013-07-30 02:13:00,70.0,67.0,29.95,North,360,0.0,0.0,90,0.00,,,0.52,,2013-07-30 07:13:00,
2013-07-30 02:23:00,70.0,67.0,29.95,North,360,0.0,0.0,90,0.00,,,0.52,,2013-07-30 07:23:00,
2013-07-30 02:33:00,70.0,67.0,29.95,North,360,0.0,0.0,90,0.00,,,0.52,,2013-07-30 07:33:00,
2013-07-30 02:43:00,71.0,68.0,29.94,North,360,0.0,1.0,90,0.00,,,0.52,,2013-07-30 07:43:00,
2013-07-30 02:53:00,71.0,68.0,29.94,North,360,0.0,1.0,90,0.00,,,0.52,,2013-07-30 07:53:00,
2013-07-30 03:03:00,71.0,68.0,29.94,North,360,0.0,1.0,90,0.00,,,0.52,,2013-07-30 08:03:00,
2013-07-30 03:13:00,71.0,68.0,29.93,North,360,0.0,0.0,90,0.00,,,0.52,,2013-07-30 08:13:00,
2013-07-30 03:23:00,71.0,68.0,29.93,North,360,0.0,0.0,90,0.00,,,0.52,,2013-07-30 08:23:00,
2013-07-30 03:33:00,71.0,68.0,29.93,North,360,0.0,0.0,90,0.00,,,0.52,,2013-07-30 08:33:00,
2013-07-30 03:43:00,-999.0,-99.9,29.94,North,360,0.0,0.0,-999,0.00,,,0.52,,2013-07-30 08:43:00,
2013-07-30 03:53:00,-999.0,-99.9,29.94,North,360,0.0,0.0,-999,0.00,,,0.52,,2013-07-30 08:53:00,
2013-07-30 04:03:00,-999.0,-99.9,29.94,North,360,0.0,0.0,-999,0.00,,,0.52,,2013-07-30 09:03:00,
2013-07-30 04:13:00,71.0,68.0,29.94,North,360,0.0,0.0,90,0.00,,,0.52,,2013-07-30 09:13:00,
2013-07-30 04:23:00,71.0,68.0,29.94,North,360,0.0,0.0,90,0.00,,,0.52,,2013-07-30 09:23:00,
2013-07-30 04:33:00,71.0,68.0,29.94,North,360,0.0,0.0,90,0.00,,,0.52,,2013-07-30 09:33:00,
2013-07-30 04:43:00,71.0,68.0,29.94,North,360,0.0,1.0,90,0.00,,,0.52,,2013-07-30 09:43:00,
2013-07-30 04:53:00,71.0,68.0,29.94,North,360,0.0,1.0,90,0.00,,,0.52,,2013-07-30 09:53:00,
2013-07-30 05:03:00,71.0,68.0,29.94,North,360,0.0,1.0,90,0.00,,,0.52,,2013-07-30 10:03:00,
2013-07-30 05:12:00,72.0,69.0,29.94,SE,131,1.0,2.0,90,0.00,,,0.52,,2013-07-30 10:12:00,
2013-07-30 05:23:00,72.0,69.0,29.94,SE,131,1.0,2.0,90,0.00,,,0.52,,2013-07-30 10:23:00,
2013-07-30 05:32:00,72.0,69.0,29.94,SE,131,1.0,2.0,90,0.00,,,0.52,,2013-07-30 10:32:00,
2013-07-30 05:44:00,72.0,69.0,29.94,SE,130,1.0,3.0,90,0.00,,,0.51,,2013-07-30 10:44:00,
2013-07-30 05:52:00,72.0,69.0,29.94,SE,130,1.0,3.0,90,0.00,,,0.51,,2013-07-30 10:52:00,
2013-07-30 06:02:00,72.0,69.0,29.94,SE,130,1.0,3.0,90,0.00,,,0.51,,2013-07-30 11:02:00,
2013-07-30 06:11:00,72.0,69.0,29.94,North,360,0.0,1.0,90,0.02,,,0.52,,2013-07-30 11:11:00,
2013-07-30 06:22:00,72.0,69.0,29.94,North,360,0.0,1.0,90,0.02,,,0.52,,2013-07-30 11:22:00,
2013-07-30 06:33:00,72.0,69.0,29.94,North,360,0.0,1.0,90,0.02,,,0.52,,2013-07-30 11:33:00,
2013-07-30 06:43:00,72.0,69.0,29.95,SE,128,1.0,2.0,90,0.05,,,0.54,,2013-07-30 11:43:00,
2013-07-30 06:53:00,72.0,69.0,29.95,SE,128,1.0,2.0,90,0.05,,,0.54,,2013-07-30 11:53:00,
2013-07-30 07:12:00,72.0,69.0,29.95,SE,128,1.0,2.0,90,0.05,,,0.54,,2013-07-30 12:12:00,
2013-07-30 07:22:00,72.0,69.0,29.96,North,360,0.0,0.0,90,0.05,,,0.49,,2013-07-30 12:22:00,
2013-07-30 07:33:00,72.0,69.0,29.96,North,360,0.0,0.0,90,0.05,,,0.49,,2013-07-30 12:33:00,
2013-07-30 07:42:00,72.0,69.0,29.95,SW,223,2.0,4.0,90,0.03,,,0.43,,2013-07-30 12:42:00,
2013-07-30 07:53:00,72.0,69.0,29.95,SW,223,2.0,4.0,90,0.03,,,0.43,,2013-07-30 12:53:00,
2013-07-30 08:02:00,72.0,69.0,29.95,SW,223,2.0,4.0,90,0.03,,,0.43,,2013-07-30 13:02:00,
2013-07-30 08:12:00,72.0,69.0,29.96,North,360,0.0,0.0,90,0.01,,,0.43,,2013-07-30 13:12:00,
2013-07-30 08:22:00,72.0,69.0,29.96,North,360,0.0,0.0,90,0.01,,,0.43,,2013-07-30 13:22:00,
2013-07-30 08:32:00,72.0,69.0,29.96,North,360,0.0,0.0,90,0.01,,,0.43,,2013-07-30 13:32:00,
2013-07-30 08:43:00,72.0,69.0,29.96,North,360,0.0,0.0,90,0.00,,,0.41,,2013-07-30 13:43:00,
2013-07-30 08:52:00,72.0,69.0,29.96,North,360,0.0,0.0,90,0.00,,,0.41,,2013-07-30 13:52:00,
2013-07-30 09:02:00,72.0,69.0,29.96,North,360,0.0,0.0,90,0.00,,,0.41,,2013-07-30 14:02:00,
2013-07-30 09:12:00,72.0,69.0,29.97,North,360,0.0,0.0,90,0.04,,,0.44,,2013-07-30 14:12:00,
2013-07-30 09:33:00,72.0,69.0,29.97,North,360,0.0,0.0,90,0.04,,,0.44,,2013-07-30 14:33:00,
2013-07-30 09:43:00,73.0,70.0,29.97,North,360,0.0,0.0,90,0.08,,,0.48,,2013-07-30 14:43:00,
2013-07-30 09:53:00,73.0,70.0,29.97,North,360,0.0,0.0,90,0.08,,,0.48,,2013-07-30 14:53:00,
2013-07-30 10:02:00,73.0,70.0,29.97,North,360,0.0,0.0,90,0.08,,,0.48,,2013-07-30 15:02:00,
2013-07-30 10:12:00,73.0,70.0,29.97,North,360,0.0,0.0,90,0.04,,,0.48,,2013-07-30 15:12:00,
2013-07-30 10:23:00,73.0,70.0,29.97,North,360,0.0,0.0,90,0.04,,,0.48,,2013-07-30 15:23:00,
2013-07-30 10:33:00,73.0,70.0,29.97,North,360,0.0,0.0,90,0.04,,,0.48,,2013-07-30 15:33:00,
2013-07-30 10:43:00,73.0,70.0,29.97,North,360,0.0,0.0,90,0.00,,,0.48,,2013-07-30 15:43:00,
2013-07-30 10:52:00,73.0,70.0,29.97,North,360,0.0,0.0,90,0.00,,,0.48,,2013-07-30 15:52:00,
2013-07-30 11:02:00,73.0,70.0,29.97,North,360,0.0,0.0,90,0.00,,,0.48,,2013-07-30 16:02:00,
2013-07-30 11:12:00,74.0,71.0,29.97,North,360,0.0,0.0,90,0.00,,,0.47,,2013-07-30 16:12:00,
2013-07-30 11:23:00,74.0,71.0,29.97,North,360,0.0,0.0,90,0.00,,,0.47,,2013-07-30 16:23:00,
2013-07-30 11:33:00,74.0,71.0,29.97,North,360,0.0,0.0,90,0.00,,,0.47,,2013-07-30 16:33:00,
2013-07-30 11:44:00,74.0,71.0,29.97,WSW,239,1.0,1.0,90,0.00,,,0.46,,2013-07-30 16:44:00,
2013-07-30 11:52:00,74.0,71.0,29.97,WSW,239,1.0,1.0,90,0.00,,,0.46,,2013-07-30 16:52:00,
2013-07-30 12:02:00,74.0,71.0,29.97,WSW,239,1.0,1.0,90,0.00,,,0.46,,2013-07-30 17:02:00,
2013-07-30 12:12:00,75.0,72.0,29.97,North,360,0.0,1.0,90,0.00,,,0.46,,2013-07-30 17:12:00,
2013-07-30 12:22:00,75.0,72.0,29.97,North,360,0.0,1.0,90,0.00,,,0.46,,2013-07-30 17:22:00,
2013-07-30 12:32:00,75.0,72.0,29.97,North,360,0.0,1.0,90,0.00,,,0.46,,2013-07-30 17:32:00,
2013-07-30 12:43:00,75.0,72.0,29.97,WNW,302,3.0,4.0,90,0.00,,,0.44,,2013-07-30 17:43:00,
2013-07-30 12:53:00,75.0,72.0,29.97,WNW,302,3.0,4.0,90,0.00,,,0.44,,2013-07-30 17:53:00,
2013-07-30 13:03:00,75.0,72.0,29.97,WNW,302,3.0,4.0,90,0.00,,,0.44,,2013-07-30 18:03:00,
2013-07-30 13:12:00,76.0,73.0,29.98,NW,318,1.0,3.0,90,0.00,,,0.44,,2013-07-30 18:12:00,
2013-07-30 13:23:00,76.0,73.0,29.98,NW,318,1.0,3.0,90,0.00,,,0.44,,2013-07-30 18:23:00,
2013-07-30 13:32:00,76.0,73.0,29.98,NW,318,1.0,3.0,90,0.00,,,0.44,,2013-07-30 18:32:00,
2013-07-30 13:43:00,76.0,73.0,29.97,North,8,3.0,4.0,90,0.00,,,0.42,,2013-07-30 18:43:00,
2013-07-30 13:52:00,76.0,73.0,29.97,North,8,3.0,4.0,90,0.00,,,0.42,,2013-07-30 18:52:00,
2013-07-30 14:03:00,76.0,73.0,29.97,North,8,3.0,4.0,90,0.00,,,0.42,,2013-07-30 19:03:00,
2013-07-30 14:12:00,77.0,74.0,29.96,North,7,1.0,2.0,90,0.00,,,0.41,,2013-07-30 19:12:00,
2013-07-30 14:22:00,77.0,74.0,29.96,North,7,1.0,2.0,90,0.00,,,0.41,,2013-07-30 19:22:00,
2013-07-30 14:33:00,77.0,74.0,29.96,North,7,1.0,2.0,90,0.00,,,0.41,,2013-07-30 19:33:00,
2013-07-30 14:44:00,77.0,74.0,29.97,North,4,3.0,3.0,90,0.00,,,0.32,,2013-07-30 19:44:00,
2013-07-30 14:52:00,77.0,74.0,29.97,North,4,3.0,3.0,90,0.00,,,0.32,,2013-07-30 19:52:00,
2013-07-30 15:02:00,77.0,74.0,29.97,North,4,3.0,3.0,90,0.00,,,0.32,,2013-07-30 20:02:00,
2013-07-30 15:12:00,77.0,74.0,29.97,North,4,1.0,1.0,89,0.00,,,0.32,,2013-07-30 20:12:00,
2013-07-30 15:22:00,77.0,74.0,29.97,North,4,1.0,1.0,89,0.00,,,0.32,,2013-07-30 20:22:00,
2013-07-30 15:33:00,77.0,74.0,29.97,North,4,1.0,1.0,89,0.00,,,0.32,,2013-07-30 20:33:00,
2013-07-30 15:43:00,78.0,74.0,29.97,North,1,3.0,3.0,88,0.00,,,0.31,,2013-07-30 20:43:00,
2013-07-30 15:52:00,78.0,74.0,29.97,North,1,3.0,3.0,88,0.00,,,0.31,,2013-07-30 20:52:00,
2013-07-30 16:02:00,78.0,74.0,29.97,North,1,3.0,3.0,88,0.00,,,0.31,,2013-07-30 21:02:00,
2013-07-30 16:12:00,78.0,74.0,29.97,North,1,4.0,4.0,87,0.00,,,0.30,,2013-07-30 21:12:00,
2013-07-30 16:22:00,78.0,74.0,29.97,North,1,4.0,4.0,87,0.00,,,0.30,,2013-07-30 21:22:00,
2013-07-30 16:32:00,78.0,74.0,29.97,North,1,4.0,4.0,87,0.00,,,0.30,,2013-07-30 21:32:00,
2013-07-30 16:42:00,79.0,74.0,29.97,North,356,3.0,4.0,85,0.00,,,0.29,,2013-07-30 21:42:00,
2013-07-30 16:52:00,79.0,74.0,29.97,North,356,3.0,4.0,85,0.00,,,0.29,,2013-07-30 21:52:00,
2013-07-30 17:02:00,79.0,74.0,29.97,North,356,3.0,4.0,85,0.00,,,0.29,,2013-07-30 22:02:00,
2013-07-30 17:12:00,79.0,74.0,29.97,NNW,341,2.0,5.0,84,0.00,,,0.28,,2013-07-30 22:12:00,
2013-07-30 17:22:00,79.0,74.0,29.97,NNW,341,2.0,5.0,84,0.00,,,0.28,,2013-07-30 22:22:00,
2013-07-30 17:32:00,79.0,74.0,29.97,NNW,341,2.0,5.0,84,0.00,,,0.28,,2013-07-30 22:32:00,
2013-07-30 17:43:00,79.0,74.0,29.97,NNW,341,2.0,5.0,84,0.00,,,0.28,,2013-07-30 22:43:00,
2013-07-30 17:52:00,79.0,74.0,29.97,North,358,3.0,4.0,84,0.00,,,0.26,,2013-07-30 22:52:00,
2013-07-30 18:02:00,79.0,74.0,29.97,North,358,3.0,4.0,84,0.00,,,0.26,,2013-07-30 23:02:00,
2013-07-30 18:12:00,78.0,73.0,29.97,North,358,2.0,4.0,85,0.00,,,0.24,,2013-07-30 23:12:00,
2013-07-30 18:22:00,78.0,73.0,29.97,North,358,2.0,4.0,85,0.00,,,0.24,,2013-07-30 23:22:00,
2013-07-30 18:32:00,78.0,73.0,29.97,North,358,2.0,4.0,85,0.00,,,0.24,,2013-07-30 23:32:00,
2013-07-30 18:42:00,78.0,73.0,29.97,North,357,3.0,3.0,86,0.00,,,0.22,,2013-07-30 23:42:00,
2013-07-30 18:53:00,78.0,73.0,29.97,North,357,3.0,3.0,86,0.00,,,0.22,,2013-07-30 23:53:00,
2013-07-30 19:02:00,78.0,73.0,29.97,North,357,3.0,3.0,86,0.00,,,0.22,,2013-07-31 00:02:00,
2013-07-30 19:12:00,78.0,73.0,29.96,North,358,4.0,4.0,84,0.00,,,0.22,,2013-07-31 00:12:00,
2013-07-30 19:22:00,78.0,73.0,29.96,North,358,4.0,4.0,84,0.00,,,0.22,,2013-07-31 00:22:00,
2013-07-30 19:32:00,78.0,73.0,29.96,North,358,4.0,4.0,84,0.00,,,0.22,,2013-07-31 00:32:00,
2013-07-30 19:43:00,78.0,73.0,29.96,North,358,4.0,6.0,84,0.00,,,0.21,,2013-07-31 00:43:00,
2013-07-30 19:53:00,78.0,73.0,29.96,North,358,4.0,6.0,84,0.00,,,0.21,,2013-07-31 00:53:00,
2013-07-30 20:02:00,78.0,73.0,29.96,North,358,4.0,6.0,84,0.00,,,0.21,,2013-07-31 01:02:00,
2013-07-30 20:12:00,78.0,73.0,29.96,North,358,4.0,6.0,84,0.00,,,0.21,,2013-07-31 01:12:00,
2013-07-30 20:22:00,77.0,72.0,29.97,North,358,1.0,2.0,85,0.00,,,0.21,,2013-07-31 01:22:00,
2013-07-30 20:32:00,77.0,72.0,29.97,North,358,1.0,2.0,85,0.00,,,0.21,,2013-07-31 01:32:00,
2013-07-30 20:43:00,77.0,72.0,29.97,North,358,1.0,2.0,85,0.00,,,0.21,,2013-07-31 01:43:00,
2013-07-30 20:52:00,76.0,72.0,29.97,North,358,1.0,1.0,87,0.00,,,0.20,,2013-07-31 01:52:00,
2013-07-30 21:02:00,76.0,72.0,29.97,North,358,1.0,1.0,87,0.00,,,0.20,,2013-07-31 02:02:00,
2013-07-30 21:12:00,76.0,72.0,29.97,North,358,1.0,1.0,87,0.00,,,0.20,,2013-07-31 02:12:00,
2013-07-30 21:22:00,76.0,72.0,29.97,North,358,1.0,1.0,87,0.00,,,0.20,,2013-07-31 02:22:00,
2013-07-30 21:32:00,75.0,71.0,29.98,North,360,0.0,0.0,88,0.00,,,0.18,,2013-07-31 02:32:00,
2013-07-30 21:43:00,75.0,71.0,29.98,North,360,0.0,0.0,88,0.00,,,0.18,,2013-07-31 02:43:00,
2013-07-30 21:52:00,75.0,71.0,29.98,North,360,0.0,0.0,88,0.00,,,0.18,,2013-07-31 02:52:00,
2013-07-30 22:02:00,75.0,71.0,29.98,North,360,0.0,0.0,88,0.00,,,0.18,,2013-07-31 03:02:00,
2013-07-30 22:12:00,74.0,71.0,30.01,North,355,1.0,2.0,90,0.00,,,0.16,,2013-07-31 03:12:00,
2013-07-30 22:22:00,74.0,71.0,30.01,North,355,1.0,2.0,90,0.00,,,0.16,,2013-07-31 03:22:00,
2013-07-30 22:32:00,74.0,71.0,30.01,North,355,1.0,2.0,90,0.00,,,0.16,,2013-07-31 03:32:00,
2013-07-30 22:52:00,74.0,71.0,30.03,North,360,0.0,0.0,90,0.00,,,0.16,,2013-07-31 03:52:00,
2013-07-30 23:02:00,74.0,71.0,30.03,North,360,0.0,0.0,90,0.00,,,0.16,,2013-07-31 04:02:00,
2013-07-30 23:12:00,74.0,71.0,30.03,North,360,0.0,0.0,90,0.00,,,0.16,,2013-07-31 04:12:00,
2013-07-30 23:22:00,74.0,71.0,30.03,North,360,0.0,0.0,90,0.00,,,0.16,,2013-07-31 04:22:00,
2013-07-30 23:32:00,74.0,71.0,30.03,North,360,0.0,0.0,90,0.00,,,0.16,,2013-07-31 04:32:00,
2013-07-30 23:42:00,74.0,71.0,30.03,North,360,0.0,0.0,90,0.00,,,0.16,,2013-07-31 04:42:00,
2013-07-30 23:52:00,74.0,71.0,30.03,North,360,0.0,0.0,90,0.00,,,0.16,,2013-07-31 04:52:00,